Time;durP1;ratioP1;P1;durP2;ratioP2;P2;SDS_P1;SDS_P2;PMS_P1;PMS_P2;Temp;Humidity;BMP_temperature;BMP_pressure;BME280_temperature;BME280_humidity;BME280_pressure;Samples;Min_cycle;Max_cycle;Signal;HPM_P1;HPM_P2
2022/06/02 00:00:06;;;;;;;3.75;2.30;;;14.60;49.40;;;;;;5080184;28;20372;-48
2022/06/02 00:02:41;;;;;;;4.40;2.78;;;14.60;49.40;;;;;;5080110;28;20044;-49
2022/06/02 00:05:21;;;;;;;4.55;2.83;;;14.50;49.70;;;;;;5079177;28;20056;-48
2022/06/02 00:08:03;;;;;;;3.58;2.67;;;14.50;49.90;;;;;;5081319;28;20044;-49
2022/06/02 00:10:43;;;;;;;3.92;2.92;;;14.50;50.10;;;;;;5079556;28;20062;-48
2022/06/02 00:13:21;;;;;;;6.47;2.60;;;14.40;50.10;;;;;;5079994;28;20052;-49
2022/06/02 00:15:53;;;;;;;3.17;2.05;;;14.40;50.20;;;;;;5079594;28;20052;-48
2022/06/02 00:18:29;;;;;;;3.08;2.30;;;14.40;50.20;;;;;;5081270;28;21203;-48
2022/06/02 00:21:03;;;;;;;4.00;3.00;;;14.30;50.20;;;;;;5079263;28;20411;-47
2022/06/02 00:23:43;;;;;;;5.78;3.30;;;14.30;50.30;;;;;;5079883;28;20530;-50
2022/06/02 00:26:28;;;;;;;7.88;3.30;;;14.30;50.40;;;;;;5083066;28;20046;-50
2022/06/02 00:29:06;;;;;;;4.88;3.25;;;14.30;50.50;;;;;;5084109;28;20056;-47
2022/06/02 00:31:49;;;;;;;6.38;3.40;;;14.30;50.40;;;;;;5083104;28;20437;-49
2022/06/02 00:34:27;;;;;;;4.68;3.40;;;14.20;50.50;;;;;;5082617;28;20047;-50
2022/06/02 00:37:06;;;;;;;5.88;2.97;;;14.20;50.70;;;;;;5084757;28;20048;-49
2022/06/02 00:39:35;;;;;;;8.48;3.47;;;14.20;50.90;;;;;;5083914;28;20051;-51
2022/06/02 00:42:12;;;;;;;3.72;2.85;;;14.20;50.90;;;;;;5083333;28;20056;-51
2022/06/02 00:44:49;;;;;;;5.35;2.33;;;14.20;51.00;;;;;;5085277;28;20055;-50
2022/06/02 00:47:36;;;;;;;4.85;3.08;;;14.20;50.80;;;;;;5084130;28;20048;-47
2022/06/02 00:50:10;;;;;;;4.18;2.40;;;14.10;50.80;;;;;;5081348;28;20056;-49
2022/06/02 00:52:49;;;;;;;3.10;2.33;;;14.10;50.70;;;;;;5082287;28;20058;-48
2022/06/02 00:58:23;;;;;;;3.33;2.20;;;14.10;50.70;;;;;;5089042;28;20434;-48
2022/06/02 01:00:53;;;;;;;3.70;2.40;;;14.00;50.70;;;;;;5083360;28;20056;-47
2022/06/02 01:03:22;;;;;;;2.92;2.40;;;14.00;50.60;;;;;;5083691;28;21021;-47
2022/06/02 01:06:24;;;;;;;4.50;2.60;;;14.00;50.70;;;;;;5081816;28;20284;-48
2022/06/02 01:09:15;;;;;;;3.80;2.60;;;13.90;50.80;;;;;;5081312;28;20056;-53
2022/06/02 01:11:52;;;;;;;4.80;3.47;;;13.90;50.90;;;;;;5081399;28;20067;-48
2022/06/02 01:14:38;;;;;;;4.10;3.08;;;13.80;50.90;;;;;;5082026;28;20059;-47
2022/06/02 01:17:16;;;;;;;5.78;3.30;;;13.80;51.00;;;;;;5083181;28;20056;-49
2022/06/02 01:19:57;;;;;;;4.68;2.97;;;13.80;51.10;;;;;;5081930;28;20431;-51
2022/06/02 01:23:05;;;;;;;4.60;3.13;;;13.70;51.20;;;;;;5083124;28;20058;-48
2022/06/02 01:25:49;;;;;;;5.25;2.70;;;13.70;51.40;;;;;;5077673;28;20518;-50
2022/06/02 01:28:38;;;;;;;3.53;2.40;;;13.70;51.30;;;;;;5083698;28;20494;-47
2022/06/02 01:31:19;;;;;;;3.08;2.50;;;13.60;51.40;;;;;;5082689;28;20055;-48
2022/06/02 01:33:54;;;;;;;6.78;3.65;;;13.60;51.30;;;;;;5081278;28;20052;-47
2022/06/02 01:36:24;;;;;;;4.68;3.20;;;13.60;51.40;;;;;;5080995;28;20059;-48
2022/06/02 01:39:05;;;;;;;3.88;2.85;;;13.50;51.40;;;;;;5076776;28;20071;-47
2022/06/02 01:41:44;;;;;;;5.05;3.30;;;13.50;51.50;;;;;;5081974;28;20063;-51
2022/06/02 01:44:20;;;;;;;4.15;3.38;;;13.50;51.60;;;;;;5082695;28;20063;-51
2022/06/02 01:47:13;;;;;;;4.85;3.30;;;13.40;51.60;;;;;;5081539;28;20498;-54
2022/06/02 01:50:01;;;;;;;4.28;3.50;;;13.40;51.70;;;;;;5081701;28;20491;-51
2022/06/02 01:52:45;;;;;;;4.18;3.40;;;13.40;51.80;;;;;;5079968;28;20079;-47
2022/06/02 01:55:35;;;;;;;5.53;4.00;;;13.30;51.90;;;;;;5081854;28;20416;-47
2022/06/02 01:58:18;;;;;;;5.65;4.28;;;13.30;51.90;;;;;;5082043;28;20059;-49
2022/06/02 02:00:51;;;;;;;7.68;5.00;;;13.30;52.00;;;;;;5080809;28;20056;-50
2022/06/02 02:03:27;;;;;;;6.22;4.90;;;13.20;52.10;;;;;;5082601;28;20047;-49
2022/06/02 02:06:05;;;;;;;6.78;4.90;;;13.20;52.20;;;;;;5081586;28;20059;-48
2022/06/02 02:08:54;;;;;;;6.38;4.70;;;13.20;52.40;;;;;;5082579;28;20052;-50
2022/06/02 02:11:37;;;;;;;6.88;4.45;;;13.20;52.50;;;;;;5081605;28;20055;-47
2022/06/02 02:14:12;;;;;;;6.88;4.70;;;13.10;52.50;;;;;;5080845;28;20059;-49
2022/06/02 02:16:50;;;;;;;7.80;4.82;;;13.10;52.50;;;;;;5081537;28;20052;-49
2022/06/02 02:19:30;;;;;;;6.70;4.10;;;13.10;52.60;;;;;;5080729;28;20055;-50
2022/06/02 02:22:04;;;;;;;6.28;4.43;;;13.00;52.70;;;;;;5080368;28;20075;-48
2022/06/02 02:24:43;;;;;;;5.93;4.65;;;13.00;52.70;;;;;;5081604;28;20488;-48
2022/06/02 02:27:17;;;;;;;6.13;4.57;;;13.00;52.80;;;;;;5083186;28;20056;-53
2022/06/02 02:29:53;;;;;;;5.88;4.55;;;13.00;52.70;;;;;;5081312;28;20411;-52
2022/06/02 02:32:41;;;;;;;6.03;4.10;;;13.00;52.80;;;;;;5081133;28;20051;-47
2022/06/02 02:35:15;;;;;;;6.18;4.50;;;12.90;52.80;;;;;;5080050;28;20514;-49
2022/06/02 02:37:50;;;;;;;6.32;4.70;;;12.90;52.80;;;;;;5082416;28;20063;-50
2022/06/02 02:40:24;;;;;;;6.57;4.43;;;12.90;52.90;;;;;;5080801;28;20083;-51
2022/06/02 02:42:57;;;;;;;5.57;4.70;;;12.90;52.90;;;;;;5082217;28;20720;-48
2022/06/02 02:45:38;;;;;;;6.35;4.47;;;12.80;52.80;;;;;;5081299;28;20087;-51
2022/06/02 02:48:19;;;;;;;6.70;4.20;;;12.80;52.90;;;;;;5082103;28;20046;-49
2022/06/02 02:50:54;;;;;;;5.28;4.05;;;12.80;52.90;;;;;;5078305;28;20059;-48
2022/06/02 02:53:30;;;;;;;4.25;3.58;;;12.80;53.00;;;;;;5080804;28;20059;-48
2022/06/02 02:56:01;;;;;;;6.22;4.20;;;12.70;52.90;;;;;;5081748;28;20060;-53
2022/06/02 02:58:39;;;;;;;5.95;4.50;;;12.70;52.90;;;;;;5080416;28;20048;-49
2022/06/02 03:01:12;;;;;;;4.75;3.70;;;12.60;52.90;;;;;;5081072;28;20048;-51
2022/06/02 03:03:44;;;;;;;6.22;4.40;;;12.60;52.90;;;;;;5079162;28;20068;-48
2022/06/02 03:06:21;;;;;;;6.40;4.50;;;12.60;52.90;;;;;;5080866;28;20047;-50
2022/06/02 03:08:58;;;;;;;5.80;4.38;;;12.60;53.00;;;;;;5081394;28;20055;-47
2022/06/02 03:11:52;;;;;;;6.93;4.47;;;12.50;52.90;;;;;;5080479;28;20058;-51
2022/06/02 03:14:32;;;;;;;7.20;4.97;;;12.50;53.50;;;;;;5081012;28;20055;-49
2022/06/02 03:17:07;;;;;;;6.18;4.43;;;12.50;52.90;;;;;;5080511;28;20052;-48
2022/06/02 03:19:44;;;;;;;11.82;4.53;;;12.50;53.00;;;;;;5081289;28;20055;-49
2022/06/02 03:22:31;;;;;;;5.22;4.07;;;12.50;53.50;;;;;;5077800;28;20056;-48
2022/06/02 03:25:08;;;;;;;5.72;4.13;;;12.40;53.00;;;;;;5077662;28;20059;-48
2022/06/02 03:27:44;;;;;;;7.47;4.65;;;12.40;53.00;;;;;;5081304;28;20118;-49
2022/06/02 03:30:19;;;;;;;8.23;5.20;;;12.40;53.00;;;;;;5078305;28;20055;-53
2022/06/02 03:33:02;;;;;;;8.05;5.35;;;12.30;53.10;;;;;;5079403;28;20044;-48
2022/06/02 03:35:37;;;;;;;10.90;5.78;;;12.30;53.20;;;;;;5078516;28;20510;-50
2022/06/02 03:38:27;;;;;;;8.52;5.75;;;12.30;53.20;;;;;;5077883;28;20052;-50
2022/06/02 03:41:40;;;;;;;8.32;5.90;;;12.30;53.40;;;;;;5080529;28;20055;-50
2022/06/02 03:44:15;;;;;;;8.65;6.28;;;12.20;53.40;;;;;;5079634;28;20059;-52
2022/06/02 03:46:55;;;;;;;9.02;6.38;;;12.20;53.40;;;;;;5079903;28;20052;-52
2022/06/02 03:49:57;;;;;;;10.55;7.03;;;12.10;53.50;;;;;;5077299;28;20063;-51
2022/06/02 03:52:44;;;;;;;16.20;9.55;;;12.10;53.70;;;;;;5079612;28;20055;-51
2022/06/02 03:55:29;;;;;;;14.15;8.75;;;12.10;53.70;;;;;;5079998;28;20074;-49
2022/06/02 03:58:11;;;;;;;12.60;8.18;;;12.10;53.80;;;;;;5079216;28;20510;-50
2022/06/02 04:00:48;;;;;;;17.27;8.95;;;12.10;53.80;;;;;;5077812;28;20052;-48
2022/06/02 04:03:31;;;;;;;12.82;8.63;;;12.10;54.00;;;;;;5080544;28;20056;-47
2022/06/02 04:06:11;;;;;;;12.43;8.10;;;12.00;54.30;;;;;;5079871;28;20550;-48
2022/06/02 04:09:01;;;;;;;10.20;7.63;;;12.00;54.30;;;;;;5079906;28;20048;-48
2022/06/02 04:14:51;;;;;;;11.85;8.57;;;12.00;54.50;;;;;;5062863;28;20055;-47
2022/06/02 04:17:26;;;;;;;14.65;8.18;;;12.00;54.40;;;;;;5049287;28;20045;-48
2022/06/02 04:20:37;;;;;;;10.80;7.40;;;12.00;54.60;;;;;;5035196;28;20055;-47
2022/06/02 04:23:28;;;;;;;11.95;8.45;;;12.00;55.00;;;;;;5034962;28;20057;-49
2022/06/02 04:26:10;;;;;;;12.05;7.72;;;12.00;55.10;;;;;;5040757;28;20061;-48
2022/06/02 04:29:00;;;;;;;29.70;18.13;;;12.00;55.00;;;;;;5038224;28;20525;-49
2022/06/02 04:31:39;;;;;;;26.38;16.08;;;12.00;55.30;;;;;;5036256;28;20064;-49
2022/06/02 04:34:16;;;;;;;24.38;14.20;;;12.00;55.30;;;;;;5039225;28;20052;-47
2022/06/02 04:36:53;;;;;;;14.57;10.27;;;12.00;55.40;;;;;;5037806;28;20064;-49
2022/06/02 04:39:27;;;;;;;12.77;9.00;;;12.10;55.50;;;;;;5038301;28;20049;-47
2022/06/02 04:42:04;;;;;;;13.00;8.65;;;12.10;56.00;;;;;;5039472;28;20060;-50
2022/06/02 04:44:41;;;;;;;16.50;9.68;;;12.10;55.50;;;;;;5032758;28;20516;-48
2022/06/02 04:47:19;;;;;;;13.75;8.40;;;12.10;55.70;;;;;;5036358;28;20060;-50
2022/06/02 04:49:55;;;;;;;13.07;8.07;;;12.10;55.70;;;;;;5036124;28;20075;-47
2022/06/02 04:52:32;;;;;;;12.23;9.10;;;12.20;55.80;;;;;;5037008;28;20048;-51
2022/06/02 04:55:07;;;;;;;11.52;8.50;;;12.20;56.00;;;;;;5041245;28;20048;-49
2022/06/02 04:57:45;;;;;;;10.93;8.02;;;12.20;56.10;;;;;;5038575;28;20064;-48
2022/06/02 05:00:21;;;;;;;9.95;7.45;;;12.20;56.10;;;;;;5036397;28;20056;-48
2022/06/02 05:02:56;;;;;;;12.73;8.07;;;12.30;56.10;;;;;;5037068;28;20057;-47
2022/06/02 05:05:34;;;;;;;9.45;7.18;;;12.30;56.10;;;;;;5035241;28;20049;-47
2022/06/02 05:08:36;;;;;;;12.02;8.75;;;12.30;56.20;;;;;;5039347;28;20053;-49
2022/06/02 05:11:15;;;;;;;12.25;7.35;;;12.40;56.60;;;;;;5042910;28;20049;-49
2022/06/02 05:13:53;;;;;;;8.02;6.25;;;12.40;56.60;;;;;;5041834;28;20068;-47
2022/06/02 05:16:30;;;;;;;7.38;6.00;;;12.50;56.60;;;;;;5037080;28;20056;-47
2022/06/02 05:19:33;;;;;;;8.27;5.72;;;12.50;56.50;;;;;;5041891;28;20080;-47
2022/06/02 05:22:34;;;;;;;9.07;6.13;;;12.50;56.70;;;;;;5042763;28;20520;-48
2022/06/02 05:25:22;;;;;;;8.40;6.35;;;12.60;56.80;;;;;;5038065;28;20501;-48
2022/06/02 05:28:08;;;;;;;8.38;6.70;;;12.60;56.80;;;;;;5041992;28;20394;-48
2022/06/02 05:31:02;;;;;;;7.68;6.35;;;12.70;57.10;;;;;;5042734;28;20052;-52
2022/06/02 05:33:53;;;;;;;16.27;8.10;;;12.70;57.50;;;;;;5027259;28;20079;-49
2022/06/02 05:36:55;;;;;;;10.48;7.57;;;12.80;57.10;;;;;;5041387;28;20061;-49
2022/06/02 05:39:38;;;;;;;12.02;8.00;;;12.90;57.20;;;;;;5039283;28;20045;-49
2022/06/02 05:42:19;;;;;;;18.17;10.02;;;12.90;57.20;;;;;;5042891;28;20057;-48
2022/06/02 05:45:00;;;;;;;11.80;8.70;;;13.00;57.50;;;;;;5043321;28;20064;-48
2022/06/02 05:47:48;;;;;;;13.10;8.73;;;13.10;57.50;;;;;;5037609;28;20056;-50
2022/06/02 05:50:29;;;;;;;13.77;9.50;;;13.10;57.60;;;;;;5037979;28;20056;-54
2022/06/02 05:53:08;;;;;;;33.67;17.27;;;13.20;57.60;;;;;;5034759;28;20057;-49
2022/06/02 05:55:46;;;;;;;21.17;13.77;;;13.30;57.50;;;;;;5040617;28;20112;-53
2022/06/02 05:58:33;;;;;;;16.83;10.90;;;13.40;57.50;;;;;;5040693;28;20049;-50
2022/06/02 06:01:10;;;;;;;14.02;9.85;;;13.40;57.40;;;;;;5035639;28;21077;-50
2022/06/02 06:04:20;;;;;;;13.98;9.70;;;13.50;57.40;;;;;;5041099;28;20060;-48
2022/06/02 06:06:55;;;;;;;13.10;9.18;;;13.60;57.50;;;;;;5018415;28;20530;-50
2022/06/02 06:09:37;;;;;;;15.57;8.75;;;13.70;57.40;;;;;;5041142;28;20053;-51
2022/06/02 06:12:37;;;;;;;12.70;9.07;;;13.80;57.60;;;;;;5036192;28;20067;-51
2022/06/02 06:15:14;;;;;;;11.38;8.85;;;13.80;57.60;;;;;;5031106;28;20056;-49
2022/06/02 06:17:49;;;;;;;13.65;10.32;;;14.00;57.50;;;;;;5039110;28;20496;-51
2022/06/02 06:20:39;;;;;;;11.65;9.25;;;14.00;57.30;;;;;;5041251;28;20503;-49
2022/06/02 06:23:33;;;;;;;15.85;11.38;;;14.10;57.30;;;;;;5041650;28;20056;-48
2022/06/02 06:26:15;;;;;;;14.77;10.13;;;14.20;57.30;;;;;;5033054;28;20059;-51
2022/06/02 06:28:50;;;;;;;13.38;10.90;;;14.20;56.90;;;;;;5038900;28;20056;-50
2022/06/02 06:31:24;;;;;;;15.43;10.90;;;14.30;56.90;;;;;;5032168;28;20053;-49
2022/06/02 06:34:02;;;;;;;18.42;12.18;;;14.40;56.80;;;;;;5035042;28;20052;-52
2022/06/02 06:37:09;;;;;;;15.75;11.02;;;14.40;56.70;;;;;;5030810;28;20056;-48
2022/06/02 06:39:48;;;;;;;15.65;11.20;;;14.50;56.80;;;;;;5040120;28;20425;-54
2022/06/02 06:42:39;;;;;;;17.58;12.10;;;14.60;56.50;;;;;;5041901;28;20067;-51
2022/06/02 06:45:13;;;;;;;17.42;13.10;;;14.70;56.80;;;;;;5037722;28;20531;-51
2022/06/02 06:47:42;;;;;;;;;;;14.70;56.80;;;;;;5042985;28;20057;-55
2022/06/02 06:50:19;;;;;;;18.77;11.68;;;14.80;56.70;;;;;;5038645;28;19948;-49
2022/06/02 06:53:04;;;;;;;18.90;11.80;;;14.90;56.80;;;;;;5040079;28;20068;-48
2022/06/02 06:55:48;;;;;;;16.27;11.98;;;14.90;57.10;;;;;;5041558;28;20053;-54
2022/06/02 06:58:28;;;;;;;22.83;14.32;;;15.00;57.00;;;;;;5039306;28;20489;-48
2022/06/02 07:01:04;;;;;;;24.23;14.75;;;15.10;56.90;;;;;;5037404;28;20404;-47
2022/06/02 07:03:49;;;;;;;17.80;12.15;;;15.10;56.70;;;;;;5039312;28;20057;-47
2022/06/02 07:06:26;;;;;;;22.42;15.43;;;15.20;56.90;;;;;;5032929;28;20059;-51
2022/06/02 07:09:01;;;;;;;19.25;12.82;;;15.30;56.20;;;;;;5024203;28;20139;-53
2022/06/02 07:14:37;;;;;;;18.63;12.55;;;15.30;55.90;;;;;;5032997;28;20060;-48
2022/06/02 07:17:10;;;;;;;21.98;14.98;;;15.40;56.30;;;;;;5037414;28;20056;-52
2022/06/02 07:19:47;;;;;;;21.52;15.43;;;15.40;56.30;;;;;;5039460;28;20049;-48
2022/06/02 07:22:27;;;;;;;21.25;12.68;;;15.50;56.30;;;;;;5039158;28;20048;-49
2022/06/02 07:25:03;;;;;;;18.25;12.20;;;15.50;56.40;;;;;;5038823;28;20052;-55
2022/06/02 07:27:37;;;;;;;18.17;11.13;;;15.60;56.70;;;;;;5037530;28;20052;-52
2022/06/02 07:30:24;;;;;;;14.93;11.07;;;15.60;56.40;;;;;;5034151;28;20047;-53
2022/06/02 07:33:17;;;;;;;18.00;11.75;;;15.70;56.30;;;;;;5037502;28;20056;-49
2022/06/02 07:36:22;;;;;;;16.00;11.70;;;15.80;55.20;;;;;;5036865;28;20080;-50
2022/06/02 07:39:07;;;;;;;;;;;15.80;54.20;;;;;;5039634;28;20052;-48
2022/06/02 07:41:54;;;;;;;15.82;9.75;;;15.90;54.40;;;;;;5026533;28;19943;-50
2022/06/02 07:44:50;;;;;;;11.88;8.02;;;16.00;54.20;;;;;;5039632;28;20485;-51
2022/06/02 15:39:56;;;;;;;2.15;0.77;;;21.40;42.10;;;;;;5085597;27;2054751;-46
2022/06/02 15:42:42;;;;;;;1.15;1.00;;;21.50;40.30;;;;;;5109682;27;20062;-49
2022/06/02 15:45:45;;;;;;;1.25;1.00;;;21.80;39.60;;;;;;5137221;27;20063;-50
2022/06/02 15:48:53;;;;;;;1.13;0.90;;;22.20;38.30;;;;;;5138045;27;20062;-49
2022/06/02 15:52:03;;;;;;;1.33;0.75;;;22.50;37.00;;;;;;5136249;27;20051;-50
2022/06/02 15:55:14;;;;;;;0.90;0.80;;;22.90;36.90;;;;;;5134222;27;20043;-49
2022/06/02 15:58:09;;;;;;;2.40;0.90;;;23.10;36.40;;;;;;5068366;27;20047;-46
2022/06/02 16:01:01;;;;;;;1.30;0.90;;;23.40;35.30;;;;;;5075822;28;20058;-51
2022/06/02 16:04:08;;;;;;;1.80;0.90;;;23.50;35.70;;;;;;5117438;28;20505;-50
2022/06/02 16:07:16;;;;;;;2.00;0.80;;;23.70;35.20;;;;;;5114162;28;20050;-50
2022/06/02 16:14:02;;;;;;;1.02;0.73;;;23.80;34.80;;;;;;5105629;27;20055;-50
2022/06/02 16:16:56;;;;;;;3.50;1.02;;;23.80;34.10;;;;;;5039383;28;20063;-56
2022/06/02 16:19:58;;;;;;;1.30;0.90;;;23.80;33.50;;;;;;5093422;28;20044;-50
2022/06/02 16:22:56;;;;;;;1.10;1.00;;;23.80;33.60;;;;;;5057944;28;20052;-50
2022/06/02 16:25:57;;;;;;;1.20;0.75;;;23.80;33.80;;;;;;5093370;28;20066;-51
2022/06/02 16:29:06;;;;;;;2.58;0.80;;;23.80;33.40;;;;;;5058360;28;20074;-51
2022/06/02 16:31:49;;;;;;;0.88;0.88;;;23.80;34.00;;;;;;5046367;28;20653;-53
2022/06/02 16:34:26;;;;;;;1.00;0.90;;;23.80;33.80;;;;;;5096376;28;20506;-49
2022/06/02 16:37:08;;;;;;;1.52;1.00;;;23.70;33.20;;;;;;5096310;28;20052;-53
2022/06/02 16:39:48;;;;;;;1.10;0.80;;;23.70;33.20;;;;;;5054500;28;20064;-49
2022/06/02 16:42:56;;;;;;;1.85;0.90;;;23.60;32.00;;;;;;5057119;28;20049;-52
2022/06/02 16:45:53;;;;;;;1.70;0.77;;;23.60;32.80;;;;;;5056227;28;22596;-50
2022/06/02 16:48:49;;;;;;;1.08;0.85;;;23.50;33.20;;;;;;5051183;28;20048;-50
2022/06/02 16:51:34;;;;;;;1.45;1.10;;;23.40;33.20;;;;;;5041540;28;20523;-50
2022/06/02 16:54:43;;;;;;;2.72;0.75;;;23.40;34.50;;;;;;5039600;28;20061;-50
2022/06/02 16:57:25;;;;;;;1.77;1.20;;;23.40;34.40;;;;;;5042412;28;20060;-48
2022/06/02 17:00:06;;;;;;;1.10;1.00;;;23.30;32.70;;;;;;5041694;28;20045;-52
2022/06/02 17:02:57;;;;;;;1.80;0.80;;;23.30;34.00;;;;;;5040812;28;20060;-51
2022/06/02 17:05:46;;;;;;;2.00;1.20;;;23.30;34.00;;;;;;5042285;28;20417;-52
2022/06/02 17:09:02;;;;;;;1.77;1.10;;;23.20;33.70;;;;;;5041543;28;20551;-50
2022/06/02 17:11:37;;;;;;;1.10;1.00;;;23.20;34.00;;;;;;4988257;28;20076;-49
2022/06/02 17:14:16;;;;;;;1.52;1.02;;;23.20;34.50;;;;;;5043611;28;20053;-50
2022/06/02 17:17:11;;;;;;;1.08;0.98;;;23.10;34.40;;;;;;5040375;28;20079;-48
2022/06/02 17:19:56;;;;;;;1.48;1.33;;;23.10;35.00;;;;;;5042073;28;20053;-53
2022/06/02 17:22:51;;;;;;;1.88;1.30;;;23.10;35.10;;;;;;5041045;28;20060;-51
2022/06/02 17:25:44;;;;;;;1.10;1.00;;;23.00;35.70;;;;;;5038687;28;20063;-52
2022/06/02 17:28:37;;;;;;;2.08;1.10;;;23.00;35.50;;;;;;5027870;28;20053;-50
2022/06/02 17:31:25;;;;;;;2.03;1.30;;;23.00;35.50;;;;;;5041303;28;20044;-52
2022/06/02 17:34:04;;;;;;;1.40;1.20;;;22.90;35.50;;;;;;5042734;28;20049;-52
2022/06/02 17:36:42;;;;;;;1.95;1.10;;;22.90;35.60;;;;;;5040763;28;20057;-51
2022/06/02 17:39:47;;;;;;;1.45;1.33;;;22.80;35.40;;;;;;5075615;28;20528;-51
2022/06/02 17:42:46;;;;;;;1.10;0.93;;;22.80;35.30;;;;;;4998733;28;20056;-51
2022/06/02 17:45:28;;;;;;;3.28;2.10;;;22.80;35.80;;;;;;5077401;28;20423;-51
2022/06/02 17:48:15;;;;;;;2.53;1.60;;;22.70;35.90;;;;;;5080889;28;20055;-52
2022/06/02 17:51:00;;;;;;;2.78;1.70;;;22.70;36.60;;;;;;5079276;28;20090;-48
2022/06/02 17:53:53;;;;;;;1.83;1.30;;;22.70;37.10;;;;;;5081570;28;20062;-48
2022/06/02 17:56:48;;;;;;;1.30;1.20;;;22.70;37.00;;;;;;5081611;28;20067;-50
2022/06/02 17:59:30;;;;;;;;;;;22.60;37.00;;;;;;5080180;28;20048;-49
2022/06/02 18:02:21;;;;;;;1.27;1.02;;;22.60;37.10;;;;;;5054443;28;20394;-48
2022/06/02 18:05:10;;;;;;;1.33;1.10;;;22.60;36.70;;;;;;5080476;28;20048;-48
2022/06/02 18:08:03;;;;;;;1.20;1.10;;;22.60;37.60;;;;;;5080353;28;20056;-50
2022/06/02 18:10:57;;;;;;;1.95;1.08;;;22.50;37.40;;;;;;5079948;28;20060;-51
2022/06/02 18:13:55;;;;;;;2.33;1.20;;;22.50;38.20;;;;;;5079775;28;20055;-49
2022/06/02 18:16:44;;;;;;;1.17;1.08;;;22.40;38.70;;;;;;5079609;28;20052;-48
2022/06/02 18:19:29;;;;;;;1.52;1.20;;;22.40;38.50;;;;;;5079876;28;20056;-49
2022/06/02 18:22:22;;;;;;;1.65;0.98;;;22.30;38.40;;;;;;5078415;28;20052;-49
2022/06/02 18:25:25;;;;;;;1.15;1.05;;;22.30;38.70;;;;;;5063627;28;20047;-52
2022/06/02 18:28:23;;;;;;;1.77;0.85;;;22.20;38.00;;;;;;5080606;28;20044;-48
2022/06/02 18:31:06;;;;;;;0.90;0.90;;;22.20;38.10;;;;;;5077106;28;20052;-49
2022/06/02 18:34:04;;;;;;;0.93;0.80;;;22.10;38.30;;;;;;5076547;28;20048;-51
2022/06/02 18:36:54;;;;;;;0.85;0.85;;;22.10;38.50;;;;;;5077203;28;20056;-49
2022/06/02 18:39:51;;;;;;;0.90;0.90;;;22.10;39.10;;;;;;5081026;28;20060;-48
2022/06/02 18:43:00;;;;;;;1.08;0.90;;;22.00;39.30;;;;;;5066649;28;20060;-49
2022/06/02 18:45:42;;;;;;;1.58;0.90;;;22.00;39.70;;;;;;5059842;28;20052;-50
2022/06/02 18:48:35;;;;;;;1.73;1.15;;;21.90;39.80;;;;;;5082519;28;20419;-48
2022/06/02 18:51:35;;;;;;;4.63;3.10;;;21.90;40.40;;;;;;5065488;28;20079;-50
2022/06/02 18:54:18;;;;;;;11.60;6.60;;;21.80;40.60;;;;;;5081403;28;20081;-48
2022/06/02 18:57:02;;;;;;;8.63;6.35;;;21.70;40.60;;;;;;5080296;28;20066;-48
2022/06/02 18:59:59;;;;;;;5.18;4.60;;;21.70;40.80;;;;;;5080000;28;20044;-49
2022/06/02 19:03:14;;;;;;;5.47;4.15;;;21.60;40.80;;;;;;5076782;28;20403;-55
2022/06/02 19:15:33;;;;;;;3.78;2.58;;;21.40;41.40;;;;;;5084848;28;20070;-48
2022/06/02 19:18:18;;;;;;;4.63;3.30;;;21.30;41.30;;;;;;5080464;28;20068;-48
2022/06/02 19:21:07;;;;;;;2.55;1.65;;;21.20;41.40;;;;;;5077990;28;20074;-51
2022/06/02 19:23:55;;;;;;;3.63;1.70;;;21.20;41.50;;;;;;5080659;28;20422;-49
2022/06/02 19:26:26;;;;;;;1.15;1.00;;;21.10;41.50;;;;;;5079985;28;20430;-50
2022/06/02 19:29:21;;;;;;;3.28;1.40;;;21.10;41.60;;;;;;5079737;28;20387;-50
2022/06/02 19:32:25;;;;;;;1.10;1.00;;;21.00;41.60;;;;;;5077936;28;20063;-53
2022/06/02 19:35:03;;;;;;;1.52;1.20;;;20.90;41.60;;;;;;5078893;28;20059;-49
2022/06/02 19:37:40;;;;;;;1.95;1.30;;;20.80;41.60;;;;;;5080567;28;20079;-49
2022/06/02 19:40:16;;;;;;;2.45;0.98;;;20.70;41.60;;;;;;5081755;28;20048;-51
2022/06/02 19:42:54;;;;;;;2.40;1.20;;;20.70;41.80;;;;;;5077816;28;20056;-49
2022/06/02 19:45:31;;;;;;;4.30;1.40;;;20.50;41.70;;;;;;5079112;28;20064;-51
2022/06/02 19:48:08;;;;;;;2.38;1.50;;;20.50;41.90;;;;;;5080598;28;20134;-50
2022/06/02 19:50:42;;;;;;;1.50;1.40;;;20.40;41.90;;;;;;5077900;28;20040;-49
2022/06/02 19:53:17;;;;;;;;;;;20.40;42.00;;;;;;5082185;28;20063;-51
2022/06/02 19:55:49;;;;;;;1.27;1.00;;;20.30;41.90;;;;;;5079455;28;20264;-52
2022/06/02 19:58:28;;;;;;;1.20;1.05;;;20.30;41.80;;;;;;5080122;28;20522;-48
2022/06/02 20:01:20;;;;;;;1.27;0.90;;;20.20;42.00;;;;;;5078573;28;20518;-48
2022/06/02 20:03:56;;;;;;;1.55;1.15;;;20.10;42.20;;;;;;5079989;28;20048;-49
2022/06/02 20:06:30;;;;;;;1.13;1.00;;;20.10;42.20;;;;;;5077662;28;20052;-47
2022/06/02 20:09:02;;;;;;;1.40;1.30;;;20.00;42.30;;;;;;5080478;28;20056;-48
2022/06/02 20:11:35;;;;;;;1.92;1.08;;;20.00;42.30;;;;;;5075003;28;20483;-51
2022/06/02 20:14:08;;;;;;;1.20;1.10;;;19.90;42.40;;;;;;5079555;28;20509;-50
2022/06/02 20:16:43;;;;;;;2.28;1.20;;;19.80;42.50;;;;;;5080032;28;20438;-50
2022/06/02 20:19:18;;;;;;;1.30;1.20;;;19.80;42.70;;;;;;5080390;28;20407;-47
2022/06/02 20:21:57;;;;;;;3.38;1.02;;;19.70;42.50;;;;;;5076456;28;20055;-53
2022/06/02 20:24:30;;;;;;;1.48;1.10;;;19.70;42.10;;;;;;5080682;28;20435;-51
2022/06/02 20:27:05;;;;;;;1.38;0.80;;;19.60;42.20;;;;;;5080496;28;20055;-49
2022/06/02 20:29:59;;;;;;;1.17;0.90;;;19.60;42.20;;;;;;5083403;28;20506;-51
2022/06/02 20:32:37;;;;;;;5.30;0.90;;;19.50;42.20;;;;;;5080955;28;20052;-49
2022/06/02 20:35:12;;;;;;;1.50;1.27;;;19.50;42.40;;;;;;5081247;28;20077;-49
2022/06/02 20:38:12;;;;;;;3.17;2.63;;;19.40;42.40;;;;;;5083944;28;20419;-51
2022/06/02 20:40:53;;;;;;;2.58;2.38;;;19.40;42.30;;;;;;5081323;28;20047;-49
2022/06/02 20:43:33;;;;;;;1.70;1.50;;;19.30;42.30;;;;;;5083566;28;20059;-48
2022/06/02 20:46:33;;;;;;;1.40;1.30;;;19.30;42.10;;;;;;5082185;28;20052;-49
2022/06/02 20:49:07;;;;;;;1.38;1.00;;;19.20;42.40;;;;;;5083844;28;20514;-51
2022/06/02 20:51:37;;;;;;;;;;;19.20;42.50;;;;;;5080318;28;20055;-49
2022/06/02 20:54:24;;;;;;;3.13;1.25;;;19.20;42.50;;;;;;5084025;28;20382;-50
2022/06/02 20:56:54;;;;;;;2.80;1.08;;;19.10;42.60;;;;;;5082278;28;20051;-47
2022/06/02 20:59:29;;;;;;;1.67;1.30;;;19.00;42.70;;;;;;5083297;28;20060;-47
2022/06/02 21:02:00;;;;;;;1.80;1.27;;;19.00;42.80;;;;;;5081338;28;20056;-48
2022/06/02 21:04:35;;;;;;;0.85;0.80;;;18.90;42.80;;;;;;5083179;28;20416;-47
2022/06/02 21:07:14;;;;;;;1.35;1.10;;;18.90;43.10;;;;;;5080982;28;20055;-50
2022/06/02 21:09:56;;;;;;;1.42;0.90;;;18.80;43.20;;;;;;5084208;28;20055;-53
2022/06/02 21:12:29;;;;;;;2.17;0.90;;;18.80;43.50;;;;;;5080257;28;20064;-48
2022/06/02 21:15:04;;;;;;;1.13;0.83;;;18.70;43.40;;;;;;5082843;28;20056;-47
2022/06/02 21:17:39;;;;;;;0.90;0.90;;;18.70;43.40;;;;;;5083869;28;20052;-48
2022/06/02 21:20:19;;;;;;;2.80;1.23;;;18.70;43.60;;;;;;5081694;28;20052;-50
2022/06/02 21:22:53;;;;;;;1.38;1.20;;;18.60;43.80;;;;;;5081739;28;20067;-48
2022/06/02 21:25:26;;;;;;;1.38;1.00;;;18.60;43.80;;;;;;5081466;28;20052;-52
2022/06/02 21:28:00;;;;;;;1.10;1.00;;;18.60;43.90;;;;;;5083379;28;20952;-48
2022/06/02 21:30:32;;;;;;;1.33;0.95;;;18.50;44.00;;;;;;5080986;28;20048;-51
2022/06/02 21:33:03;;;;;;;0.95;0.90;;;18.40;43.90;;;;;;5080955;28;20068;-51
2022/06/02 21:35:39;;;;;;;2.42;1.33;;;18.40;43.90;;;;;;5081759;28;20062;-48
2022/06/02 21:38:16;;;;;;;2.63;1.15;;;18.30;44.30;;;;;;5082119;28;20064;-52
2022/06/02 21:40:46;;;;;;;1.35;0.95;;;18.30;44.10;;;;;;5080162;28;20063;-51
2022/06/02 21:43:21;;;;;;;1.50;1.10;;;18.30;44.20;;;;;;5082484;28;20052;-50
2022/06/02 21:46:02;;;;;;;1.10;1.00;;;18.20;44.30;;;;;;5080287;28;20418;-49
2022/06/02 21:48:39;;;;;;;1.10;1.00;;;18.10;44.40;;;;;;5082381;28;20051;-49
2022/06/02 21:51:30;;;;;;;1.77;0.90;;;18.10;44.50;;;;;;5077106;28;21352;-49
2022/06/02 21:54:05;;;;;;;2.88;1.00;;;18.00;44.50;;;;;;5081282;28;20055;-49
2022/06/02 21:56:40;;;;;;;1.30;0.90;;;18.00;44.40;;;;;;5080614;28;20060;-53
2022/06/02 21:59:15;;;;;;;1.45;1.08;;;17.90;45.00;;;;;;5081930;28;20060;-53
2022/06/02 22:01:46;;;;;;;1.02;0.93;;;17.90;44.60;;;;;;5079086;28;20048;-50
2022/06/02 22:04:19;;;;;;;1.70;0.98;;;17.80;44.60;;;;;;5080419;28;20060;-51
2022/06/02 22:07:05;;;;;;;1.73;0.98;;;17.80;44.90;;;;;;5076245;28;21295;-52
2022/06/02 22:09:38;;;;;;;2.00;0.95;;;17.80;44.90;;;;;;5081003;28;20063;-52
2022/06/02 22:12:22;;;;;;;4.68;0.93;;;17.70;44.70;;;;;;5079369;28;20063;-53
2022/06/02 22:14:55;;;;;;;1.52;1.20;;;17.70;44.90;;;;;;5080525;28;20048;-51
2022/06/02 22:17:28;;;;;;;1.08;0.88;;;17.70;44.80;;;;;;5080920;28;20056;-48
2022/06/02 22:20:01;;;;;;;1.70;1.13;;;17.60;44.70;;;;;;5079542;28;20047;-51
2022/06/02 22:22:34;;;;;;;1.83;1.05;;;17.60;44.70;;;;;;5077720;28;20232;-50